Arsenal, Utah
Current Conditions -  °F | °C
As of 4:58 AM on Tuesday 21 Oct 2014 (Local Time) from KHIF Reporting Station
Scattered Clouds Scattered Clouds  
Wind Chill: 64°   Ceiling: Unl
Heat Index: 64°   Visibility: 10mi
Dew Point: 39°   Wind: 15mph
Humidity: 40%   Direction: 170°S
Pressure: 29.88"   Gusts: NA
Location:  41.123°N, 112.063°W
Report Text: KHIF 211058Z AUTO 17013KT 10SM SCT100 18/04 A2988 RMK AO2 SLP063 T01800041
Loading
Personal Weather Stations






























Interactive Weather Map
Tropical Storm Tracking
New forecast layout! Learn more

10-Day Weather Forecast

Advertisements
Track Severe Weather on mobile